sensor_id;sensor_type;location;lat;lon;timestamp;pressure;altitude;pressure_sealevel;temperature;humidity
65227;BME280;51805;49.012;12.104;2023-04-07T00:00:29;97901.81;;;21.36;46.99
65227;BME280;51805;49.012;12.104;2023-04-07T00:02:54;97907.47;;;21.34;47.00
65227;BME280;51805;49.012;12.104;2023-04-07T00:05:20;97904.00;;;21.34;47.03
65227;BME280;51805;49.012;12.104;2023-04-07T00:07:45;97899.38;;;21.34;47.12
65227;BME280;51805;49.012;12.104;2023-04-07T00:10:10;97904.78;;;21.34;46.95
65227;BME280;51805;49.012;12.104;2023-04-07T00:12:37;97897.78;;;21.33;47.28
65227;BME280;51805;49.012;12.104;2023-04-07T00:15:02;97896.94;;;21.33;47.10
65227;BME280;51805;49.012;12.104;2023-04-07T00:17:28;97894.50;;;21.31;47.18
65227;BME280;51805;49.012;12.104;2023-04-07T00:19:53;97901.28;;;21.34;47.27
65227;BME280;51805;49.012;12.104;2023-04-07T00:22:18;97899.91;;;21.31;47.05
65227;BME280;51805;49.012;12.104;2023-04-07T00:24:44;97894.50;;;21.31;47.16
65227;BME280;51805;49.012;12.104;2023-04-07T00:27:09;97897.50;;;21.30;47.30
65227;BME280;51805;49.012;12.104;2023-04-07T00:29:34;97897.50;;;21.30;47.17
65227;BME280;51805;49.012;12.104;2023-04-07T00:31:59;97884.00;;;21.25;47.10
65227;BME280;51805;49.012;12.104;2023-04-07T00:34:25;97894.78;;;21.30;47.35
65227;BME280;51805;49.012;12.104;2023-04-07T00:36:50;97883.47;;;21.28;47.27
65227;BME280;51805;49.012;12.104;2023-04-07T00:39:15;97883.47;;;21.28;47.30
65227;BME280;51805;49.012;12.104;2023-04-07T00:41:41;97883.72;;;21.26;47.45
65227;BME280;51805;49.012;12.104;2023-04-07T00:44:06;97891.03;;;21.26;47.37
65227;BME280;51805;49.012;12.104;2023-04-07T00:46:31;97884.00;;;21.25;47.35
65227;BME280;51805;49.012;12.104;2023-04-07T00:48:57;97887.50;;;21.25;47.35
65227;BME280;51805;49.012;12.104;2023-04-07T00:51:22;97891.84;;;21.26;47.43
65227;BME280;51805;49.012;12.104;2023-04-07T00:53:48;97885.06;;;21.24;47.47
65227;BME280;51805;49.012;12.104;2023-04-07T00:56:13;97884.28;;;21.23;47.38
65227;BME280;51805;49.012;12.104;2023-04-07T00:58:38;97882.38;;;21.24;47.52
65227;BME280;51805;49.012;12.104;2023-04-07T01:01:08;97876.19;;;21.23;47.50
65227;BME280;51805;49.012;12.104;2023-04-07T01:04:04;97876.97;;;21.24;47.51
65227;BME280;51805;49.012;12.104;2023-04-07T01:06:35;97873.19;;;21.20;47.51
65227;BME280;51805;49.012;12.104;2023-04-07T01:09:08;97867.78;;;21.20;47.56
65227;BME280;51805;49.012;12.104;2023-04-07T01:11:43;97869.41;;;21.21;47.48
65227;BME280;51805;49.012;12.104;2023-04-07T01:14:12;97863.72;;;21.22;47.41
65227;BME280;51805;49.012;12.104;2023-04-07T01:16:45;97864.00;;;21.21;47.55
65227;BME280;51805;49.012;12.104;2023-04-07T01:19:38;97864.81;;;21.21;47.61
65227;BME280;51805;49.012;12.104;2023-04-07T01:22:10;97858.06;;;21.19;47.56
65227;BME280;51805;49.012;12.104;2023-04-07T01:30:22;97853.47;;;21.14;47.54
65227;BME280;51805;49.012;12.104;2023-04-07T01:32:51;97861.84;;;21.18;47.40
65227;BME280;51805;49.012;12.104;2023-04-07T01:35:17;97854.81;;;21.17;47.68
65227;BME280;51805;49.012;12.104;2023-04-07T01:37:44;97859.13;;;21.18;47.44
65227;BME280;51805;49.012;12.104;2023-04-07T01:40:10;97864.03;;;21.16;47.50
65227;BME280;51805;49.012;12.104;2023-04-07T01:42:38;97858.63;;;21.16;47.60
65227;BME280;51805;49.012;12.104;2023-04-07T01:45:05;97853.22;;;21.16;47.65
65227;BME280;51805;49.012;12.104;2023-04-07T01:47:33;97852.41;;;21.15;47.79
65227;BME280;51805;49.012;12.104;2023-04-07T01:50:00;97846.16;;;21.15;47.62
65227;BME280;51805;49.012;12.104;2023-04-07T01:52:26;97851.56;;;21.15;47.52
65227;BME280;51805;49.012;12.104;2023-04-07T01:54:53;97846.16;;;21.15;47.59
65227;BME280;51805;49.012;12.104;2023-04-07T01:57:18;97855.38;;;21.14;47.78
65227;BME280;51805;49.012;12.104;2023-04-07T01:59:44;97853.72;;;21.13;47.77
65227;BME280;51805;49.012;12.104;2023-04-07T02:02:09;97842.13;;;21.12;47.88
65227;BME280;51805;49.012;12.104;2023-04-07T02:04:39;97839.72;;;21.11;47.74
65227;BME280;51805;49.012;12.104;2023-04-07T02:07:14;97838.06;;;21.10;47.51
65227;BME280;51805;49.012;12.104;2023-04-07T02:09:42;97840.22;;;21.13;47.91
65227;BME280;51805;49.012;12.104;2023-04-07T02:12:10;97841.31;;;21.12;47.83
65227;BME280;51805;49.012;12.104;2023-04-07T02:14:37;97846.72;;;21.12;47.80
65227;BME280;51805;49.012;12.104;2023-04-07T02:17:03;97830.50;;;21.12;47.90
65227;BME280;51805;49.012;12.104;2023-04-07T02:19:28;97842.41;;;21.11;47.70
65227;BME280;51805;49.012;12.104;2023-04-07T02:21:55;97836.47;;;21.09;47.78
65227;BME280;51805;49.012;12.104;2023-04-07T02:24:20;97831.06;;;21.09;48.01
65227;BME280;51805;49.012;12.104;2023-04-07T02:26:45;97827.25;;;21.10;47.91
65227;BME280;51805;49.012;12.104;2023-04-07T02:29:11;97831.31;;;21.07;47.90
65227;BME280;51805;49.012;12.104;2023-04-07T02:31:36;97825.66;;;21.09;47.86
65227;BME280;51805;49.012;12.104;2023-04-07T02:34:01;97836.72;;;21.07;47.95
65227;BME280;51805;49.012;12.104;2023-04-07T02:36:27;97821.34;;;21.03;47.87
65227;BME280;51805;49.012;12.104;2023-04-07T02:38:52;97824.03;;;21.08;47.98
65227;BME280;51805;49.012;12.104;2023-04-07T02:41:17;97824.81;;;21.08;47.97
65227;BME280;51805;49.012;12.104;2023-04-07T02:43:42;97824.03;;;21.08;47.84
65227;BME280;51805;49.012;12.104;2023-04-07T02:46:08;97826.19;;;21.06;48.04
65227;BME280;51805;49.012;12.104;2023-04-07T02:48:33;97824.59;;;21.05;47.93
65227;BME280;51805;49.012;12.104;2023-04-07T02:50:58;97811.88;;;21.05;48.01
65227;BME280;51805;49.012;12.104;2023-04-07T02:53:24;97820.78;;;21.06;47.95
65227;BME280;51805;49.012;12.104;2023-04-07T02:55:49;97819.72;;;21.02;48.00
65227;BME280;51805;49.012;12.104;2023-04-07T02:58:14;97819.19;;;21.05;47.89
65227;BME280;51805;49.012;12.104;2023-04-07T03:00:39;97817.31;;;21.00;48.37
65227;BME280;51805;49.012;12.104;2023-04-07T03:03:05;97811.34;;;21.03;48.07
65227;BME280;51805;49.012;12.104;2023-04-07T03:05:30;97803.78;;;21.00;48.02
65227;BME280;51805;49.012;12.104;2023-04-07T03:07:56;97809.72;;;21.02;48.16
65227;BME280;51805;49.012;12.104;2023-04-07T03:10:21;97800.81;;;21.02;47.99
65227;BME280;51805;49.012;12.104;2023-04-07T03:12:46;97804.59;;;21.01;48.22
65227;BME280;51805;49.012;12.104;2023-04-07T03:15:12;97808.94;;;21.02;48.01
65227;BME280;51805;49.012;12.104;2023-04-07T03:17:37;97802.97;;;21.00;47.85
65227;BME280;51805;49.012;12.104;2023-04-07T03:20:02;97808.09;;;21.01;47.98
65227;BME280;51805;49.012;12.104;2023-04-07T03:22:28;97797.03;;;20.98;48.01
65227;BME280;51805;49.012;12.104;2023-04-07T03:24:53;97804.06;;;20.99;48.14
65227;BME280;51805;49.012;12.104;2023-04-07T03:27:18;97809.19;;;21.00;48.04
65227;BME280;51805;49.012;12.104;2023-04-07T03:29:43;97803.25;;;20.98;47.99
65227;BME280;51805;49.012;12.104;2023-04-07T03:32:09;97809.47;;;20.99;48.04
65227;BME280;51805;49.012;12.104;2023-04-07T03:34:34;97807.28;;;21.01;48.05
65227;BME280;51805;49.012;12.104;2023-04-07T03:36:59;97804.34;;;20.97;47.99
65227;BME280;51805;49.012;12.104;2023-04-07T03:39:25;97788.41;;;20.96;48.08
65227;BME280;51805;49.012;12.104;2023-04-07T03:41:50;97798.13;;;20.97;48.10
65227;BME280;51805;49.012;12.104;2023-04-07T03:44:15;97800.81;;;20.97;48.23
65227;BME280;51805;49.012;12.104;2023-04-07T03:46:40;97798.94;;;20.97;48.05
65227;BME280;51805;49.012;12.104;2023-04-07T03:49:06;97791.06;;;20.91;48.12
65227;BME280;51805;49.012;12.104;2023-04-07T03:51:31;97792.13;;;20.95;48.27
65227;BME280;51805;49.012;12.104;2023-04-07T03:53:56;97801.91;;;20.96;48.31
65227;BME280;51805;49.012;12.104;2023-04-07T03:56:21;97797.53;;;20.95;48.16
65227;BME280;51805;49.012;12.104;2023-04-07T03:58:47;97799.22;;;20.96;48.01
65227;BME280;51805;49.012;12.104;2023-04-07T04:01:12;97799.41;;;20.94;48.05
65227;BME280;51805;49.012;12.104;2023-04-07T04:03:38;97802.13;;;20.94;48.29
65227;BME280;51805;49.012;12.104;2023-04-07T04:06:03;97800.25;;;20.95;48.25
65227;BME280;51805;49.012;12.104;2023-04-07T04:08:29;97797.53;;;20.95;48.27
65227;BME280;51805;49.012;12.104;2023-04-07T04:10:55;97792.69;;;20.92;48.14
65227;BME280;51805;49.012;12.104;2023-04-07T04:13:20;97787.59;;;20.95;48.22
65227;BME280;51805;49.012;12.104;2023-04-07T04:15:45;97795.13;;;20.93;48.19
65227;BME280;51805;49.012;12.104;2023-04-07T04:18:11;97790.53;;;20.94;48.33
65227;BME280;51805;49.012;12.104;2023-04-07T04:20:36;97793.22;;;20.94;48.18
65227;BME280;51805;49.012;12.104;2023-04-07T04:23:01;97785.91;;;20.94;48.51
65227;BME280;51805;49.012;12.104;2023-04-07T04:25:26;97789.72;;;20.93;48.40
65227;BME280;51805;49.012;12.104;2023-04-07T04:27:52;97787.81;;;20.94;48.31
65227;BME280;51805;49.012;12.104;2023-04-07T04:30:17;97791.06;;;20.91;48.21
65227;BME280;51805;49.012;12.104;2023-04-07T04:32:42;97792.69;;;20.92;48.36
65227;BME280;51805;49.012;12.104;2023-04-07T04:35:08;97791.88;;;20.91;48.31
65227;BME280;51805;49.012;12.104;2023-04-07T04:37:33;97771.09;;;20.82;48.36
65227;BME280;51805;49.012;12.104;2023-04-07T04:39:58;97781.38;;;20.85;48.25
65227;BME280;51805;49.012;12.104;2023-04-07T04:42:24;97788.38;;;20.91;48.33
65227;BME280;51805;49.012;12.104;2023-04-07T04:44:49;97785.66;;;20.91;48.26
65227;BME280;51805;49.012;12.104;2023-04-07T04:47:14;97788.09;;;20.92;48.36
65227;BME280;51805;49.012;12.104;2023-04-07T04:49:39;97789.44;;;20.90;48.53
65227;BME280;51805;49.012;12.104;2023-04-07T04:52:05;97793.50;;;20.92;48.27
65227;BME280;51805;49.012;12.104;2023-04-07T04:54:30;97782.69;;;20.92;48.36
65227;BME280;51805;49.012;12.104;2023-04-07T04:56:55;97787.81;;;20.94;48.35
65227;BME280;51805;49.012;12.104;2023-04-07T04:59:21;97788.09;;;20.92;48.27
65227;BME280;51805;49.012;12.104;2023-04-07T05:01:46;97783.50;;;20.93;48.53
65227;BME280;51805;49.012;12.104;2023-04-07T05:04:11;97786.72;;;20.95;48.28
65227;BME280;51805;49.012;12.104;2023-04-07T05:06:36;97779.19;;;20.92;48.23
65227;BME280;51805;49.012;12.104;2023-04-07T05:09:02;97782.19;;;20.95;48.40
65227;BME280;51805;49.012;12.104;2023-04-07T05:11:27;97783.00;;;20.96;48.34
65227;BME280;51805;49.012;12.104;2023-04-07T05:13:52;97773.22;;;20.95;48.33
65227;BME280;51805;49.012;12.104;2023-04-07T05:16:17;97777.59;;;20.96;48.25
65227;BME280;51805;49.012;12.104;2023-04-07T05:18:43;97775.94;;;20.95;48.23
65227;BME280;51805;49.012;12.104;2023-04-07T05:21:08;97781.63;;;20.98;48.42
65227;BME280;51805;49.012;12.104;2023-04-07T05:23:34;97784.88;;;21.00;48.38
65227;BME280;51805;49.012;12.104;2023-04-07T05:26:00;97781.63;;;20.98;48.35
65227;BME280;51805;49.012;12.104;2023-04-07T05:28:25;97784.59;;;21.02;48.28
65227;BME280;51805;49.012;12.104;2023-04-07T05:30:50;97783.50;;;21.03;48.19
65227;BME280;51805;49.012;12.104;2023-04-07T05:33:15;97784.59;;;21.02;48.20
65227;BME280;51805;49.012;12.104;2023-04-07T05:35:43;97784.06;;;21.05;48.14
65227;BME280;51805;49.012;12.104;2023-04-07T05:38:09;97787.56;;;21.05;48.20
65227;BME280;51805;49.012;12.104;2023-04-07T05:40:34;97787.56;;;21.05;48.13
65227;BME280;51805;49.012;12.104;2023-04-07T05:42:59;97792.41;;;21.08;48.24
65227;BME280;51805;49.012;12.104;2023-04-07T05:45:24;97788.91;;;21.08;48.30
65227;BME280;51805;49.012;12.104;2023-04-07T05:47:50;97789.16;;;21.11;48.03
65227;BME280;51805;49.012;12.104;2023-04-07T05:50:16;97782.97;;;21.11;48.05
65227;BME280;51805;49.012;12.104;2023-04-07T05:52:41;97770.00;;;21.08;47.97
65227;BME280;51805;49.012;12.104;2023-04-07T05:55:07;97788.88;;;21.13;48.00
65227;BME280;51805;49.012;12.104;2023-04-07T05:57:32;97782.97;;;21.16;47.90
65227;BME280;51805;49.012;12.104;2023-04-07T05:59:57;97784.56;;;21.17;47.95
65227;BME280;51805;49.012;12.104;2023-04-07T06:02:23;97781.59;;;21.18;47.97
65227;BME280;51805;49.012;12.104;2023-04-07T06:04:48;97788.09;;;21.17;48.08
65227;BME280;51805;49.012;12.104;2023-04-07T06:07:13;97787.81;;;21.19;48.06
65227;BME280;51805;49.012;12.104;2023-04-07T06:09:38;97790.25;;;21.20;48.00
65227;BME280;51805;49.012;12.104;2023-04-07T06:12:04;97791.56;;;21.23;47.79
65227;BME280;51805;49.012;12.104;2023-04-07T06:14:29;97788.88;;;21.23;47.65
65227;BME280;51805;49.012;12.104;2023-04-07T06:16:54;97784.00;;;21.25;47.69
65227;BME280;51805;49.012;12.104;2023-04-07T06:19:20;97783.72;;;21.26;47.67
65227;BME280;51805;49.012;12.104;2023-04-07T06:21:45;97789.94;;;21.27;47.58
65227;BME280;51805;49.012;12.104;2023-04-07T06:24:10;97787.78;;;21.29;47.65
65227;BME280;51805;49.012;12.104;2023-04-07T06:26:36;97785.59;;;21.31;47.50
65227;BME280;51805;49.012;12.104;2023-04-07T06:29:01;97782.63;;;21.32;47.63
65227;BME280;51805;49.012;12.104;2023-04-07T06:31:27;97788.81;;;21.33;47.46
65227;BME280;51805;49.012;12.104;2023-04-07T06:33:52;97788.28;;;21.36;47.54
65227;BME280;51805;49.012;12.104;2023-04-07T06:36:17;97780.72;;;21.33;47.42
65227;BME280;51805;49.012;12.104;2023-04-07T06:38:43;97787.75;;;21.39;47.40
65227;BME280;51805;49.012;12.104;2023-04-07T06:41:08;97787.75;;;21.39;47.33
65227;BME280;51805;49.012;12.104;2023-04-07T06:43:33;97780.69;;;21.38;47.34
65227;BME280;51805;49.012;12.104;2023-04-07T06:45:59;97785.56;;;21.41;47.43
65227;BME280;51805;49.012;12.104;2023-04-07T06:48:24;97787.19;;;21.42;47.46
65227;BME280;51805;49.012;12.104;2023-04-07T06:50:49;97783.41;;;21.43;47.39
65227;BME280;51805;49.012;12.104;2023-04-07T06:53:15;97778.00;;;21.43;47.30
65227;BME280;51805;49.012;12.104;2023-04-07T06:55:40;97785.00;;;21.44;47.38
65227;BME280;51805;49.012;12.104;2023-04-07T06:58:06;97786.38;;;21.47;47.33
65227;BME280;51805;49.012;12.104;2023-04-07T07:00:31;97785.28;;;21.48;47.37
65227;BME280;51805;49.012;12.104;2023-04-07T07:02:56;97784.44;;;21.47;47.31
65227;BME280;51805;49.012;12.104;2023-04-07T07:05:22;97783.09;;;21.50;47.27
65227;BME280;51805;49.012;12.104;2023-04-07T07:07:47;97776.88;;;21.49;47.32
65227;BME280;51805;49.012;12.104;2023-04-07T07:10:12;97777.94;;;21.53;47.14
65227;BME280;51805;49.012;12.104;2023-04-07T07:12:38;97784.97;;;21.54;47.11
65227;BME280;51805;49.012;12.104;2023-04-07T07:15:03;97790.09;;;21.56;47.35
65227;BME280;51805;49.012;12.104;2023-04-07T07:17:29;97789.84;;;21.57;47.26
65227;BME280;51805;49.012;12.104;2023-04-07T07:19:54;97781.19;;;21.55;47.20
65227;BME280;51805;49.012;12.104;2023-04-07T07:22:19;97786.03;;;21.58;47.12
65227;BME280;51805;49.012;12.104;2023-04-07T07:24:44;97791.44;;;21.58;47.29
65227;BME280;51805;49.012;12.104;2023-04-07T07:27:10;97786.56;;;21.60;47.32
65227;BME280;51805;49.012;12.104;2023-04-07T07:29:35;97786.56;;;21.60;47.13
65227;BME280;51805;49.012;12.104;2023-04-07T07:32:00;97787.13;;;21.62;47.05
65227;BME280;51805;49.012;12.104;2023-04-07T07:34:26;97787.91;;;21.63;47.24
65227;BME280;51805;49.012;12.104;2023-04-07T07:36:51;97788.44;;;21.65;47.12
65227;BME280;51805;49.012;12.104;2023-04-07T07:39:16;97794.13;;;21.63;47.20
65227;BME280;51805;49.012;12.104;2023-04-07T07:41:41;97785.19;;;21.63;47.18
65227;BME280;51805;49.012;12.104;2023-04-07T07:44:07;97785.75;;;21.65;47.15
65227;BME280;51805;49.012;12.104;2023-04-07T07:46:32;97790.88;;;21.66;47.18
65227;BME280;51805;49.012;12.104;2023-04-07T07:48:57;97792.47;;;21.67;46.84
65227;BME280;51805;49.012;12.104;2023-04-07T07:51:23;97791.41;;;21.68;47.09
65227;BME280;51805;49.012;12.104;2023-04-07T07:53:48;97789.22;;;21.70;47.18
65227;BME280;51805;49.012;12.104;2023-04-07T07:56:13;97791.63;;;21.72;47.13
65227;BME280;51805;49.012;12.104;2023-04-07T07:58:39;97787.88;;;21.73;47.20
65227;BME280;51805;49.012;12.104;2023-04-07T08:01:04;97768.69;;;21.69;47.09
65227;BME280;51805;49.012;12.104;2023-04-07T08:03:29;97782.19;;;21.74;47.08
65227;BME280;51805;49.012;12.104;2023-04-07T08:05:55;97781.94;;;21.76;46.89
65227;BME280;51805;49.012;12.104;2023-04-07T08:08:20;97778.94;;;21.77;47.17
65227;BME280;51805;49.012;12.104;2023-04-07T08:10:45;97778.13;;;21.77;46.94
65227;BME280;51805;49.012;12.104;2023-04-07T08:13:10;97785.19;;;21.78;47.02
65227;BME280;51805;49.012;12.104;2023-04-07T08:15:36;97782.19;;;21.79;47.11
65227;BME280;51805;49.012;12.104;2023-04-07T08:18:01;97778.94;;;21.77;47.13
65227;BME280;51805;49.012;12.104;2023-04-07T08:20:27;97784.91;;;21.79;47.04
65227;BME280;51805;49.012;12.104;2023-04-07T08:22:52;97780.00;;;21.81;47.03
65227;BME280;51805;49.012;12.104;2023-04-07T08:25:17;97784.63;;;21.81;46.95
65227;BME280;51805;49.012;12.104;2023-04-07T08:27:43;97781.91;;;21.81;47.13
65227;BME280;51805;49.012;12.104;2023-04-07T08:30:08;97772.16;;;21.80;46.95
65227;BME280;51805;49.012;12.104;2023-04-07T08:32:37;97781.63;;;21.82;46.90
65227;BME280;51805;49.012;12.104;2023-04-07T08:35:03;97775.94;;;21.84;46.81
65227;BME280;51805;49.012;12.104;2023-04-07T08:37:29;97776.75;;;21.84;46.99
65227;BME280;51805;49.012;12.104;2023-04-07T08:39:55;97778.38;;;21.85;47.00
65227;BME280;51805;49.012;12.104;2023-04-07T08:42:22;97767.84;;;21.84;47.14
65227;BME280;51805;49.012;12.104;2023-04-07T08:44:51;97761.06;;;21.81;47.03
65227;BME280;51805;49.012;12.104;2023-04-07T08:47:18;97766.44;;;21.86;47.03
65227;BME280;51805;49.012;12.104;2023-04-07T08:49:46;97760.22;;;21.86;47.01
65227;BME280;51805;49.012;12.104;2023-04-07T08:52:14;97762.66;;;21.87;46.81
65227;BME280;51805;49.012;12.104;2023-04-07T08:54:42;97761.03;;;21.86;47.01
65227;BME280;51805;49.012;12.104;2023-04-07T08:57:08;97763.75;;;21.86;47.11
65227;BME280;51805;49.012;12.104;2023-04-07T08:59:34;97763.47;;;21.88;46.92
65227;BME280;51805;49.012;12.104;2023-04-07T09:02:01;97758.88;;;21.88;46.94
65227;BME280;51805;49.012;12.104;2023-04-07T09:04:26;97758.06;;;21.88;46.91
65227;BME280;51805;49.012;12.104;2023-04-07T09:06:52;97763.72;;;21.91;46.99
65227;BME280;51805;49.012;12.104;2023-04-07T09:09:17;97758.31;;;21.91;46.80
65227;BME280;51805;49.012;12.104;2023-04-07T09:11:42;97765.34;;;21.92;46.90
65227;BME280;51805;49.012;12.104;2023-04-07T09:14:08;97759.91;;;21.92;46.90
65227;BME280;51805;49.012;12.104;2023-04-07T09:16:33;97766.94;;;21.93;46.86
65227;BME280;51805;49.012;12.104;2023-04-07T09:18:59;97754.78;;;21.96;46.91
65227;BME280;51805;49.012;12.104;2023-04-07T09:21:24;97749.63;;;21.94;46.92
65227;BME280;51805;49.012;12.104;2023-04-07T09:23:50;97750.16;;;21.96;46.82
65227;BME280;51805;49.012;12.104;2023-04-07T09:26:26;97750.69;;;21.98;46.90
65227;BME280;51805;49.012;12.104;2023-04-07T09:28:57;97751.50;;;21.99;46.92
65227;BME280;51805;49.012;12.104;2023-04-07T09:31:23;97744.19;;;21.99;46.80
65227;BME280;51805;49.012;12.104;2023-04-07T09:33:48;97741.50;;;21.99;46.77
65227;BME280;51805;49.012;12.104;2023-04-07T09:36:14;97743.63;;;22.02;46.70
65227;BME280;51805;49.012;12.104;2023-04-07T09:38:40;97740.13;;;22.02;46.72
65227;BME280;51805;49.012;12.104;2023-04-07T09:43:31;97737.13;;;22.03;46.35
65227;BME280;51805;49.012;12.104;2023-04-07T09:46:16;97729.84;;;21.99;46.70
65227;BME280;51805;49.012;12.104;2023-04-07T09:48:43;97731.19;;;22.01;46.75
65227;BME280;51805;49.012;12.104;2023-04-07T09:51:14;97734.41;;;22.03;46.57
65227;BME280;51805;49.012;12.104;2023-04-07T09:53:50;97728.19;;;22.03;46.70
65227;BME280;51805;49.012;12.104;2023-04-07T09:56:19;97732.81;;;22.02;46.57
65227;BME280;51805;49.012;12.104;2023-04-07T09:58:45;97736.31;;;22.03;46.63
65227;BME280;51805;49.012;12.104;2023-04-07T10:01:12;97729.00;;;22.03;46.76
65227;BME280;51805;49.012;12.104;2023-04-07T10:03:38;97725.75;;;22.01;46.79
65227;BME280;51805;49.012;12.104;2023-04-07T10:06:04;97730.09;;;22.02;46.71
65227;BME280;51805;49.012;12.104;2023-04-07T10:08:31;97732.81;;;22.02;46.67
65227;BME280;51805;49.012;12.104;2023-04-07T10:10:58;97726.88;;;22.00;46.58
65227;BME280;51805;49.012;12.104;2023-04-07T10:13:26;97736.31;;;22.03;46.83
65227;BME280;51805;49.012;12.104;2023-04-07T10:15:52;97714.94;;;22.01;46.71
65227;BME280;51805;49.012;12.104;2023-04-07T10:18:19;97722.00;;;22.02;46.88
65227;BME280;51805;49.012;12.104;2023-04-07T10:20:47;97713.88;;;22.02;46.66
65227;BME280;51805;49.012;12.104;2023-04-07T10:23:52;97707.38;;;21.98;46.73
65227;BME280;51805;49.012;12.104;2023-04-07T10:26:23;97711.16;;;22.02;46.55
65227;BME280;51805;49.012;12.104;2023-04-07T10:28:52;97706.81;;;22.01;46.76
65227;BME280;51805;49.012;12.104;2023-04-07T10:31:19;97704.13;;;22.01;46.79
65227;BME280;51805;49.012;12.104;2023-04-07T10:33:50;97702.50;;;22.00;46.69
65227;BME280;51805;49.012;12.104;2023-04-07T10:36:17;97704.69;;;21.98;46.78
65227;BME280;51805;49.012;12.104;2023-04-07T10:41:40;97703.06;;;22.02;46.66
65227;BME280;51805;49.012;12.104;2023-04-07T10:44:07;97702.50;;;22.00;46.83
65227;BME280;51805;49.012;12.104;2023-04-07T10:49:11;97704.13;;;22.01;46.85
65227;BME280;51805;49.012;12.104;2023-04-07T10:51:36;97704.94;;;22.02;46.72
65227;BME280;51805;49.012;12.104;2023-04-07T10:54:22;97700.34;;;22.02;46.65
65227;BME280;51805;49.012;12.104;2023-04-07T10:59:31;97696.00;;;22.01;46.75
65227;BME280;51805;49.012;12.104;2023-04-07T11:04:38;97675.44;;;22.00;46.60
65227;BME280;51805;49.012;12.104;2023-04-07T11:07:04;97683.56;;;22.00;46.66
65227;BME280;51805;49.012;12.104;2023-04-07T11:09:29;97694.41;;;22.00;46.66
65227;BME280;51805;49.012;12.104;2023-04-07T11:11:54;97676.81;;;21.98;47.03
65227;BME280;51805;49.012;12.104;2023-04-07T11:14:27;97672.75;;;22.00;46.49
65227;BME280;51805;49.012;12.104;2023-04-07T11:16:53;97670.03;;;22.00;46.59
65227;BME280;51805;49.012;12.104;2023-04-07T11:19:19;97661.63;;;22.02;46.62
65227;BME280;51805;49.012;12.104;2023-04-07T11:21:44;97666.22;;;22.01;46.69
65227;BME280;51805;49.012;12.104;2023-04-07T11:24:09;97658.41;;;22.00;46.76
65227;BME280;51805;49.012;12.104;2023-04-07T11:26:41;97660.31;;;21.99;46.68
65227;BME280;51805;49.012;12.104;2023-04-07T11:29:06;97659.22;;;22.00;46.81
65227;BME280;51805;49.012;12.104;2023-04-07T11:31:32;97661.91;;;22.00;46.71
65227;BME280;51805;49.012;12.104;2023-04-07T11:34:00;97658.69;;;21.98;46.54
65227;BME280;51805;49.012;12.104;2023-04-07T11:36:38;97664.34;;;22.02;46.78
65227;BME280;51805;49.012;12.104;2023-04-07T11:39:04;97666.22;;;22.01;46.77
65227;BME280;51805;49.012;12.104;2023-04-07T11:41:31;97661.38;;;21.98;46.62
65227;BME280;51805;49.012;12.104;2023-04-07T11:44:10;97666.22;;;22.01;46.55
65227;BME280;51805;49.012;12.104;2023-04-07T11:46:36;97661.63;;;22.02;46.72
65227;BME280;51805;49.012;12.104;2023-04-07T11:49:09;97661.91;;;22.00;46.73
65227;BME280;51805;49.012;12.104;2023-04-07T11:51:35;97661.63;;;22.02;46.78
65227;BME280;51805;49.012;12.104;2023-04-07T11:54:00;97651.63;;;22.02;46.60
65227;BME280;51805;49.012;12.104;2023-04-07T11:56:25;97652.69;;;22.01;46.73
65227;BME280;51805;49.012;12.104;2023-04-07T11:58:53;97653.81;;;22.00;46.72
65227;BME280;51805;49.012;12.104;2023-04-07T12:01:18;97666.22;;;22.01;46.65
65227;BME280;51805;49.012;12.104;2023-04-07T12:04:01;97673.28;;;22.02;46.59
65227;BME280;51805;49.012;12.104;2023-04-07T12:06:34;97659.50;;;21.99;46.68
65227;BME280;51805;49.012;12.104;2023-04-07T12:09:00;97658.13;;;22.01;46.62
65227;BME280;51805;49.012;12.104;2023-04-07T12:11:26;97650.81;;;22.02;46.65
65227;BME280;51805;49.012;12.104;2023-04-07T12:13:52;97661.63;;;22.02;46.57
65227;BME280;51805;49.012;12.104;2023-04-07T12:16:17;97657.03;;;22.02;46.63
65227;BME280;51805;49.012;12.104;2023-04-07T12:18:43;97657.84;;;22.03;46.56
65227;BME280;51805;49.012;12.104;2023-04-07T12:21:08;97658.66;;;22.03;46.48
65227;BME280;51805;49.012;12.104;2023-04-07T12:23:33;97661.34;;;22.03;46.64
65227;BME280;51805;49.012;12.104;2023-04-07T12:25:59;97657.84;;;22.03;46.54
65227;BME280;51805;49.012;12.104;2023-04-07T12:28:24;97661.34;;;22.03;46.66
65227;BME280;51805;49.012;12.104;2023-04-07T12:30:49;97664.06;;;22.03;46.51
65227;BME280;51805;49.012;12.104;2023-04-07T12:33:15;97662.16;;;22.04;46.57
65227;BME280;51805;49.012;12.104;2023-04-07T12:35:40;97666.50;;;22.05;46.48
65227;BME280;51805;49.012;12.104;2023-04-07T12:38:05;97663.50;;;22.06;46.46
65227;BME280;51805;49.012;12.104;2023-04-07T12:40:31;97661.59;;;22.07;46.54
65227;BME280;51805;49.012;12.104;2023-04-07T12:42:56;97667.31;;;22.05;46.69
65227;BME280;51805;49.012;12.104;2023-04-07T12:45:21;97662.69;;;22.06;46.78
65227;BME280;51805;49.012;12.104;2023-04-07T12:47:46;97659.69;;;22.07;46.63
65227;BME280;51805;49.012;12.104;2023-04-07T12:50:12;97656.69;;;22.09;46.66
65227;BME280;51805;49.012;12.104;2023-04-07T12:52:38;97657.50;;;22.09;46.69
65227;BME280;51805;49.012;12.104;2023-04-07T12:55:04;97653.72;;;22.10;46.50
65227;BME280;51805;49.012;12.104;2023-04-07T12:57:29;97658.06;;;22.11;46.33
65227;BME280;51805;49.012;12.104;2023-04-07T12:59:54;97654.53;;;22.11;46.39
65227;BME280;51805;49.012;12.104;2023-04-07T13:02:20;97657.50;;;22.09;46.48
65227;BME280;51805;49.012;12.104;2023-04-07T13:04:45;97649.13;;;22.11;46.51